Time;durP1;ratioP1;P1;durP2;ratioP2;P2;SDS_P1;SDS_P2;PMS_P1;PMS_P2;Temp;Humidity;BMP_temperature;BMP_pressure;BME280_temperature;BME280_humidity;BME280_pressure;Samples;Min_cycle;Max_cycle;Signal;HPM_P1;HPM_P2
2021/06/26 00:01:15;;;;;;;5.00;2.40;;;;;;;23.31;35.33;102008.25;5050893;28;20056;-78
2021/06/26 00:03:41;;;;;;;4.30;2.20;;;;;;;23.22;35.36;102006.50;5068792;28;20481;-79
2021/06/26 00:06:07;;;;;;;8.15;2.50;;;;;;;23.28;35.34;102006.22;5047137;28;20035;-82
2021/06/26 00:08:33;;;;;;;5.68;2.40;;;;;;;23.24;35.38;102006.94;5068764;28;20042;-83
2021/06/26 00:10:59;;;;;;;7.43;2.47;;;;;;;23.26;35.60;102007.34;5050352;28;20047;-82
2021/06/26 00:13:26;;;;;;;8.00;2.45;;;;;;;23.18;35.76;102011.19;5050285;28;20470;-82
2021/06/26 00:15:52;;;;;;;5.72;2.50;;;;;;;23.28;35.51;102009.78;5068988;28;20426;-79
2021/06/26 00:18:18;;;;;;;6.75;2.33;;;;;;;23.26;35.23;102009.34;5049976;28;20024;-80
2021/06/26 00:20:44;;;;;;;5.63;2.42;;;;;;;23.27;35.36;102002.59;5050933;28;20077;-79
2021/06/26 00:23:11;;;;;;;6.13;2.25;;;;;;;23.36;35.32;102007.94;5050544;28;20040;-80
2021/06/26 00:25:37;;;;;;;6.65;2.38;;;;;;;23.31;35.42;102009.03;5069446;28;20382;-81
2021/06/26 00:28:04;;;;;;;6.30;2.95;;;;;;;23.25;35.27;102011.31;5068414;28;20101;-78
2021/06/26 00:30:30;;;;;;;4.07;2.40;;;;;;;23.32;35.41;102004.28;5051590;28;20182;-82
2021/06/26 00:32:56;;;;;;;6.28;2.25;;;;;;;23.35;35.12;102006.31;5050454;28;20490;-79
2021/06/26 00:35:22;;;;;;;3.58;1.88;;;;;;;23.41;35.11;102002.03;5051092;28;20063;-81
2021/06/26 00:37:48;;;;;;;8.43;3.17;;;;;;;23.36;35.09;102005.97;5069360;28;20453;-81
2021/06/26 00:40:14;;;;;;;5.45;2.38;;;;;;;23.19;35.57;102001.63;5068133;28;20032;-82
2021/06/26 00:42:43;;;;;;;6.15;2.17;;;;;;;23.26;35.19;102007.34;5051014;28;20414;-82
2021/06/26 00:45:12;;;;;;;7.95;2.75;;;;;;;23.22;35.27;102009.28;5060137;28;20074;-82
2021/06/26 00:47:38;;;;;;;6.28;2.70;;;;;;;23.28;35.10;102003.41;5050742;28;20186;-83
2021/06/26 00:50:10;;;;;;;8.48;2.53;;;;;;;23.31;35.12;102008.25;5067642;28;20056;-78
2021/06/26 00:52:35;;;;;;;6.57;2.13;;;;;;;23.34;35.09;101991.56;5067877;28;20036;-81
2021/06/26 00:55:01;;;;;;;5.07;2.30;;;;;;;23.30;35.11;101995.47;5050353;28;20021;-78
2021/06/26 00:57:28;;;;;;;5.53;2.30;;;;;;;23.34;35.16;101997.13;5069162;28;20020;-81
2021/06/26 00:59:56;;;;;;;6.95;3.17;;;;;;;23.31;35.10;101995.09;5068461;28;20079;-80
2021/06/26 01:02:22;;;;;;;7.70;2.25;;;;;;;23.26;35.18;101985.03;5069421;28;20123;-81
2021/06/26 01:04:48;;;;;;;7.28;2.25;;;;;;;23.34;35.05;101996.34;5072307;28;20124;-79
2021/06/26 01:07:13;;;;;;;6.47;2.35;;;;;;;23.35;34.89;101992.38;5054020;28;20119;-81
2021/06/26 01:09:39;;;;;;;6.53;2.72;;;;;;;23.35;34.84;102003.53;5072735;28;20028;-79
2021/06/26 01:12:05;;;;;;;4.65;2.60;;;;;;;23.28;35.00;102003.41;5071456;28;20387;-80
2021/06/26 01:14:31;;;;;;;2.92;2.00;;;;;;;23.29;34.81;101999.44;5070051;28;20040;-81
2021/06/26 01:17:08;;;;;;;4.65;2.30;;;;;;;23.21;35.09;101995.72;5072262;28;20075;-80
2021/06/26 01:19:36;;;;;;;4.28;1.70;;;;;;;23.19;34.76;101996.06;5070169;28;20032;-81
2021/06/26 01:22:06;;;;;;;6.13;2.05;;;;;;;23.15;34.87;102006.34;5072009;28;20028;-81
2021/06/26 01:24:37;;;;;;;4.50;2.28;;;;;;;23.21;34.67;101998.50;5070343;28;20047;-81
2021/06/26 01:27:03;;;;;;;4.57;1.90;;;;;;;23.02;34.89;101996.53;5071683;28;20025;-82
2021/06/26 01:29:29;;;;;;;4.05;1.98;;;;;;;23.11;34.89;101999.09;5069983;28;20051;-81
2021/06/26 01:31:56;;;;;;;3.92;2.10;;;;;;;22.93;35.02;101993.97;5072258;28;20430;-80
2021/06/26 01:34:22;;;;;;;4.78;2.20;;;;;;;22.94;35.06;101997.56;5071388;28;20039;-79
2021/06/26 01:36:48;;;;;;;4.05;2.03;;;;;;;23.00;35.01;102004.47;5072132;28;20024;-79
2021/06/26 01:39:15;;;;;;;5.88;2.00;;;;;;;22.96;34.92;101995.22;5071631;28;20110;-81
2021/06/26 01:41:42;;;;;;;4.85;1.88;;;;;;;22.97;35.03;101994.03;5072167;28;20028;-81
2021/06/26 01:44:08;;;;;;;4.55;1.83;;;;;;;22.94;34.91;101995.59;5071041;28;20039;-81
2021/06/26 01:46:34;;;;;;;4.03;2.05;;;;;;;22.87;35.16;102000.19;5071919;28;20025;-80
2021/06/26 01:49:10;;;;;;;4.60;2.42;;;;;;;22.93;34.90;102009.88;5070490;28;20061;-80
2021/06/26 01:51:37;;;;;;;4.05;2.00;;;;;;;22.98;34.78;102006.81;5070297;28;20146;-79
2021/06/26 01:54:07;;;;;;;9.85;2.75;;;;;;;22.90;34.89;102008.66;5071033;28;20033;-81
2021/06/26 01:56:33;;;;;;;4.30;2.30;;;;;;;22.92;34.80;102005.50;5070095;28;20059;-80
2021/06/26 01:59:00;;;;;;;3.67;2.17;;;;;;;22.92;34.93;102002.72;5071095;28;20044;-80
2021/06/26 02:01:26;;;;;;;5.03;2.20;;;;;;;22.92;35.15;102005.50;5053733;28;20487;-80
2021/06/26 02:03:52;;;;;;;6.03;1.90;;;;;;;22.94;34.85;102005.91;5070846;28;20487;-79
2021/06/26 02:06:19;;;;;;;3.22;2.35;;;;;;;22.94;34.95;102008.72;5070567;28;20032;-81
2021/06/26 02:08:45;;;;;;;6.30;2.20;;;;;;;22.93;34.82;102005.13;5071036;28;20076;-81
2021/06/26 02:11:14;;;;;;;4.60;2.60;;;;;;;22.85;35.23;102002.53;5052165;28;20028;-79
2021/06/26 02:13:40;;;;;;;6.28;2.45;;;;;;;22.82;35.35;102004.06;5070891;28;20044;-80
2021/06/26 02:16:06;;;;;;;4.43;2.50;;;;;;;22.77;35.25;102006.34;5070517;28;20048;-83
2021/06/26 02:18:32;;;;;;;4.28;2.35;;;;;;;22.65;35.45;101999.72;5070743;28;20492;-82
2021/06/26 02:20:57;;;;;;;7.05;2.75;;;;;;;22.51;35.43;101999.41;5069147;28;20555;-84
2021/06/26 02:23:23;;;;;;;8.52;1.95;;;;;;;22.52;35.57;102003.81;5069242;28;20048;-84
2021/06/26 02:25:48;;;;;;;7.00;2.88;;;;;;;22.59;35.90;102008.72;5067689;28;20073;-86
2021/06/26 02:28:14;;;;;;;6.88;2.90;;;;;;;22.60;35.82;102000.03;5072426;28;20093;-86
2021/06/26 02:30:40;;;;;;;6.60;2.55;;;;;;;22.54;35.95;101997.88;5072179;28;20033;-86
2021/06/26 02:33:05;;;;;;;6.18;1.60;;;;;;;22.55;36.21;101993.94;5072474;28;20024;-85
2021/06/26 02:35:31;;;;;;;4.20;1.40;;;;;;;22.57;36.51;101989.59;5072363;28;20021;-85
2021/06/26 02:37:57;;;;;;;17.27;3.50;;;;;;;22.64;36.78;101989.75;5072036;28;20028;-85
2021/06/26 02:40:23;;;;;;;3.80;2.20;;;;;;;22.83;36.68;101982.59;5062018;28;20107;-85
2021/06/26 02:42:48;;;;;;;5.50;2.55;;;;;;;22.78;37.10;101988.44;5054512;28;20111;-85
2021/06/26 02:45:14;;;;;;;4.15;1.55;;;;;;;22.79;37.09;101993.66;5054353;28;20031;-83
2021/06/26 02:47:40;;;;;;;5.07;2.17;;;;;;;22.87;36.91;101994.63;5054431;28;20024;-85
2021/06/26 02:50:06;;;;;;;7.30;2.72;;;;;;;22.88;36.46;101993.44;5054366;28;20024;-83
2021/06/26 02:52:33;;;;;;;3.47;1.73;;;;;;;22.68;37.09;101987.84;5054100;28;20025;-84
2021/06/26 02:54:59;;;;;;;5.45;1.80;;;;;;;22.89;36.48;101987.50;5054090;28;20063;-84
2021/06/26 02:57:25;;;;;;;7.97;1.42;;;;;;;22.86;36.67;101984.66;5054169;28;20024;-84
2021/06/26 02:59:52;;;;;;;3.38;1.63;;;;;;;22.82;36.81;101979.00;5065781;28;20090;-84
2021/06/26 03:02:18;;;;;;;3.97;1.88;;;;;;;22.86;36.57;101982.69;5070444;28;20020;-84
2021/06/26 03:04:44;;;;;;;7.05;1.52;;;;;;;22.85;36.86;101986.63;5070564;28;20061;-85
2021/06/26 03:07:09;;;;;;;2.88;1.08;;;;;;;22.74;37.10;101981.97;5070798;28;20020;-84
2021/06/26 03:09:36;;;;;;;6.57;1.83;;;;;;;22.90;37.21;101982.75;5071802;28;20025;-84
2021/06/26 03:12:02;;;;;;;3.22;1.67;;;;;;;22.71;37.36;101980.75;5071645;28;20413;-84
2021/06/26 03:14:28;;;;;;;4.53;1.30;;;;;;;22.77;37.18;101986.84;5070544;28;20021;-84
2021/06/26 03:16:53;;;;;;;6.18;1.42;;;;;;;22.76;37.23;101986.03;5070099;28;20062;-83
2021/06/26 03:19:19;;;;;;;7.00;2.15;;;;;;;22.66;37.41;101978.22;5071435;28;20021;-84
2021/06/26 03:21:44;;;;;;;4.15;1.27;;;;;;;22.77;37.43;101976.50;5071758;28;20103;-83
2021/06/26 03:24:10;;;;;;;3.50;1.42;;;;;;;22.66;37.74;101976.25;5070307;28;20547;-83
2021/06/26 03:26:38;;;;;;;4.90;1.88;;;;;;;22.77;37.41;101978.47;5069774;28;20041;-83
2021/06/26 03:29:05;;;;;;;6.07;1.67;;;;;;;22.73;37.36;101974.78;5069482;28;20035;-84
2021/06/26 03:31:31;;;;;;;5.65;2.00;;;;;;;22.69;37.73;101972.75;5069580;28;20461;-83
2021/06/26 03:33:57;;;;;;;10.18;2.47;;;;;;;22.76;37.44;101972.09;5070496;28;20036;-84
2021/06/26 03:36:24;;;;;;;8.70;1.55;;;;;;;22.71;37.46;101970.41;5070761;28;20429;-83
2021/06/26 03:38:50;;;;;;;4.43;1.73;;;;;;;22.78;37.37;101978.09;5070784;28;20039;-83
2021/06/26 03:41:16;;;;;;;5.05;1.58;;;;;;;22.68;37.61;101981.47;5070617;28;20031;-83
2021/06/26 03:43:41;;;;;;;4.70;1.50;;;;;;;22.65;37.82;101990.56;5071737;28;20108;-84
2021/06/26 03:46:07;;;;;;;5.93;1.70;;;;;;;22.57;37.65;101981.25;5071784;28;20027;-84
2021/06/26 03:48:33;;;;;;;4.70;1.35;;;;;;;22.62;37.66;101983.75;5071726;28;20391;-83
2021/06/26 03:50:59;;;;;;;3.88;1.23;;;;;;;22.56;37.75;101978.81;5072923;28;20028;-84
2021/06/26 03:53:26;;;;;;;3.67;1.30;;;;;;;22.57;37.70;101978.44;5071574;28;20031;-83
2021/06/26 03:55:52;;;;;;;2.88;1.50;;;;;;;22.51;37.68;101988.25;5071650;28;20076;-84
2021/06/26 03:58:26;;;;;;;8.25;1.90;;;;;;;22.35;37.95;101990.28;5071468;28;20025;-84
2021/06/26 04:00:52;;;;;;;2.85;1.20;;;;;;;22.17;38.30;101991.88;5054867;28;20040;-83
2021/06/26 04:03:18;;;;;;;3.95;1.33;;;;;;;22.40;38.04;101998.38;5072350;28;20040;-84
2021/06/26 04:05:44;;;;;;;4.03;1.77;;;;;;;22.46;37.80;102005.28;5072575;28;20024;-83
2021/06/26 04:08:11;;;;;;;2.92;1.30;;;;;;;22.34;37.82;101994.25;5054876;28;20032;-84
2021/06/26 04:10:41;;;;;;;2.38;1.13;;;;;;;22.50;37.72;102003.38;5054853;28;20032;-84
2021/06/26 04:13:07;;;;;;;6.32;1.60;;;;;;;22.58;37.40;102010.69;5054499;28;20501;-83
2021/06/26 04:15:33;;;;;;;3.58;1.05;;;;;;;22.58;37.49;102009.91;5054446;28;20028;-82
2021/06/26 04:17:59;;;;;;;1.60;0.90;;;;;;;22.71;37.36;102023.34;5054685;28;20039;-83
2021/06/26 04:20:24;;;;;;;7.38;1.48;;;;;;;22.80;37.34;102013.94;5054624;28;20024;-84
2021/06/26 04:22:50;;;;;;;2.20;0.80;;;;;;;22.78;37.15;102019.09;5072491;28;20111;-84
2021/06/26 04:25:17;;;;;;;4.72;1.10;;;;;;;22.91;36.58;102023.38;5054711;28;20025;-83
2021/06/26 04:27:43;;;;;;;9.63;1.77;;;;;;;22.78;37.17;102031.03;5072521;28;20029;-84
2021/06/26 04:30:10;;;;;;;2.40;1.10;;;;;;;22.93;36.98;102024.63;5054374;28;20032;-83
2021/06/26 04:32:37;;;;;;;5.00;1.48;;;;;;;22.93;36.98;102021.03;5072477;28;20642;-83
2021/06/26 04:35:05;;;;;;;5.68;1.20;;;;;;;23.07;36.41;102020.53;5072293;28;20042;-83
2021/06/26 04:37:31;;;;;;;2.67;1.48;;;;;;;23.07;36.45;102026.09;5054620;28;20470;-84
2021/06/26 04:39:57;;;;;;;4.38;2.00;;;;;;;23.07;36.15;102026.91;5048695;28;20053;-84
2021/06/26 04:42:23;;;;;;;4.22;2.03;;;;;;;22.93;35.96;102026.59;5038146;28;20037;-83
2021/06/26 04:44:48;;;;;;;3.05;1.80;;;;;;;22.94;35.71;102033.78;5037851;28;20036;-84
2021/06/26 04:47:15;;;;;;;5.47;1.77;;;;;;;22.88;35.78;102029.69;5038342;28;20502;-83
2021/06/26 04:49:41;;;;;;;5.25;1.83;;;;;;;22.77;36.03;102028.63;5056039;28;20025;-84
2021/06/26 04:52:08;;;;;;;3.03;1.60;;;;;;;22.70;35.90;102041.22;5038404;28;20390;-83
2021/06/26 04:54:33;;;;;;;2.20;1.52;;;;;;;22.66;35.84;102043.13;5038366;28;20064;-83
2021/06/26 04:56:59;;;;;;;4.50;2.15;;;;;;;22.57;35.86;102053.66;5038293;28;20064;-81
2021/06/26 04:59:25;;;;;;;2.30;1.67;;;;;;;22.59;35.76;102045.75;5055960;28;20491;-83
2021/06/26 05:01:50;;;;;;;5.78;2.28;;;;;;;22.55;35.49;102044.06;5055798;28;20516;-82
2021/06/26 05:04:16;;;;;;;6.15;1.80;;;;;;;22.48;35.44;102055.03;5037775;28;20491;-84
2021/06/26 05:06:42;;;;;;;5.22;2.45;;;;;;;22.41;35.68;102061.25;5038082;28;20036;-83
2021/06/26 05:09:07;;;;;;;4.82;2.08;;;;;;;22.41;35.67;102066.81;5055941;28;20025;-83
2021/06/26 05:11:33;;;;;;;4.75;2.40;;;;;;;22.44;35.58;102054.94;5055871;28;20068;-84
2021/06/26 05:13:59;;;;;;;3.28;1.90;;;;;;;22.41;35.59;102055.69;5055928;28;20029;-84
2021/06/26 05:16:24;;;;;;;3.88;1.80;;;;;;;22.45;35.51;102050.19;5055703;28;20029;-83
2021/06/26 05:18:50;;;;;;;8.68;2.55;;;;;;;22.37;35.80;102054.81;5037536;28;20063;-84
2021/06/26 05:21:16;;;;;;;5.10;2.60;;;;;;;22.42;35.59;102051.72;5037634;28;20029;-82
2021/06/26 05:23:41;;;;;;;3.03;1.67;;;;;;;22.38;35.68;102067.53;5037705;28;20109;-83
2021/06/26 05:26:09;;;;;;;4.47;2.20;;;;;;;22.46;35.57;102052.63;5055553;28;20033;-83
2021/06/26 05:28:37;;;;;;;5.88;2.17;;;;;;;22.59;35.46;102053.28;5037533;28;20075;-83
2021/06/26 05:31:03;;;;;;;6.22;2.53;;;;;;;22.57;35.43;102067.59;5037436;28;20487;-84
2021/06/26 05:33:28;;;;;;;7.53;2.58;;;;;;;22.53;35.67;102065.91;5037153;28;20479;-84
2021/06/26 05:35:55;;;;;;;5.20;2.40;;;;;;;22.53;35.62;102080.63;5037367;28;20035;-83
2021/06/26 05:38:21;;;;;;;6.80;2.08;;;;;;;22.63;35.40;102079.25;5036564;28;20371;-83
2021/06/26 05:40:47;;;;;;;3.55;1.80;;;;;;;22.58;35.66;102080.34;5036895;28;20028;-83
2021/06/26 05:43:13;;;;;;;3.55;2.13;;;;;;;22.62;35.69;102077.66;5055206;28;20390;-83
2021/06/26 05:45:39;;;;;;;6.05;2.17;;;;;;;22.60;35.70;102068.84;5037140;28;20060;-84
2021/06/26 05:48:05;;;;;;;6.07;2.30;;;;;;;22.55;36.07;102069.13;5036842;28;20029;-83
2021/06/26 05:50:31;;;;;;;4.82;2.45;;;;;;;22.57;36.00;102069.56;5037258;28;20043;-83
2021/06/26 05:52:57;;;;;;;4.18;2.10;;;;;;;22.59;35.93;102062.44;5037193;28;20112;-84
2021/06/26 05:55:28;;;;;;;4.45;2.00;;;;;;;22.52;36.26;102061.47;5037146;28;20029;-84
2021/06/26 05:57:54;;;;;;;3.85;2.20;;;;;;;22.69;35.82;102061.91;5037044;28;20037;-84
2021/06/26 06:00:21;;;;;;;4.65;2.10;;;;;;;22.72;36.16;102065.94;5054469;28;20052;-83
2021/06/26 06:02:50;;;;;;;5.07;2.05;;;;;;;22.69;36.13;102064.69;5036521;28;20029;-84
2021/06/26 06:05:16;;;;;;;3.53;1.88;;;;;;;22.82;36.20;102067.34;5036165;28;20030;-83
2021/06/26 06:07:43;;;;;;;4.50;2.13;;;;;;;22.90;36.01;102069.16;5036671;28;20017;-84
2021/06/26 06:10:11;;;;;;;2.90;1.60;;;;;;;22.76;36.17;102063.25;5036853;28;20096;-83
2021/06/26 06:12:38;;;;;;;8.10;2.97;;;;;;;22.88;36.19;102063.94;5036640;28;20120;-83
2021/06/26 06:15:06;;;;;;;7.13;1.42;;;;;;;22.95;36.35;102072.44;5054385;28;20060;-84
2021/06/26 06:17:33;;;;;;;7.80;2.00;;;;;;;22.97;36.62;102072.06;5036711;28;20056;-83
2021/06/26 06:19:59;;;;;;;6.18;1.98;;;;;;;23.00;36.53;102068.56;5036616;28;20025;-84
2021/06/26 06:22:25;;;;;;;3.67;1.30;;;;;;;22.95;36.90;102075.22;5054282;28;20407;-83
2021/06/26 06:24:51;;;;;;;3.13;1.40;;;;;;;23.03;36.97;102070.63;5054492;28;20025;-84
2021/06/26 06:27:17;;;;;;;3.78;1.08;;;;;;;22.93;36.92;102071.19;5036514;28;20024;-83
2021/06/26 06:29:43;;;;;;;4.22;1.20;;;;;;;23.02;37.06;102079.34;5036543;28;20032;-83
2021/06/26 06:32:09;;;;;;;2.10;0.90;;;;;;;23.10;36.86;102069.97;5036316;28;20037;-83
2021/06/26 06:34:34;;;;;;;3.88;1.35;;;;;;;23.31;36.75;102072.38;5036397;28;20056;-83
2021/06/26 06:37:00;;;;;;;3.78;0.95;;;;;;;23.12;37.31;102073.19;5036388;28;20025;-84
2021/06/26 06:39:26;;;;;;;7.90;1.85;;;;;;;23.23;37.22;102069.44;5036249;28;20108;-84
2021/06/26 06:41:52;;;;;;;4.10;1.58;;;;;;;23.21;36.80;102066.22;5054015;28;20083;-83
2021/06/26 06:44:18;;;;;;;3.45;1.10;;;;;;;23.47;36.56;102073.09;5036384;28;20087;-83
2021/06/26 06:46:43;;;;;;;2.40;0.80;;;;;;;23.52;36.53;102081.16;5054121;28;20024;-84
2021/06/26 06:49:09;;;;;;;2.30;1.38;;;;;;;23.70;35.76;102078.72;5036172;28;20033;-83
2021/06/26 06:51:36;;;;;;;3.60;1.17;;;;;;;23.48;36.46;102075.50;5036235;28;20039;-83
2021/06/26 06:54:02;;;;;;;1.52;0.90;;;;;;;23.69;36.41;102091.09;5036156;28;20029;-83
2021/06/26 06:56:28;;;;;;;2.42;0.90;;;;;;;23.54;36.43;102079.63;5036091;28;20039;-82
2021/06/26 06:58:54;;;;;;;5.70;1.60;;;;;;;23.59;36.41;102083.28;5039935;28;20132;-82
2021/06/26 07:01:20;;;;;;;4.43;1.17;;;;;;;23.62;36.20;102083.38;5051738;28;20098;-83
2021/06/26 07:03:45;;;;;;;2.78;0.98;;;;;;;23.68;36.17;102093.06;5053840;28;20029;-83
2021/06/26 07:06:11;;;;;;;3.80;1.13;;;;;;;23.38;36.16;102092.84;5052583;28;20029;-83
2021/06/26 07:08:37;;;;;;;2.72;0.80;;;;;;;23.59;35.97;102092.47;5053582;28;20024;-84
2021/06/26 07:11:02;;;;;;;3.40;1.23;;;;;;;23.68;36.14;102092.25;5053859;28;20071;-84
2021/06/26 07:13:28;;;;;;;2.45;0.95;;;;;;;23.36;36.52;102098.00;5053088;28;20033;-84
2021/06/26 07:15:54;;;;;;;2.53;1.33;;;;;;;23.36;36.22;102098.00;5051722;28;20501;-83
2021/06/26 07:18:20;;;;;;;3.00;1.20;;;;;;;23.35;36.33;102101.13;5051941;28;20040;-82
2021/06/26 07:20:46;;;;;;;2.53;1.05;;;;;;;23.41;36.29;102096.88;5053214;28;20017;-83
2021/06/26 07:23:12;;;;;;;4.38;1.45;;;;;;;23.58;36.08;102096.44;5065402;28;20032;-83
2021/06/26 07:25:37;;;;;;;2.80;1.10;;;;;;;23.67;35.79;102096.22;5072905;28;20020;-83
2021/06/26 07:28:03;;;;;;;5.22;1.10;;;;;;;23.58;36.23;102090.84;5072530;28;20036;-83
2021/06/26 07:30:29;;;;;;;6.35;1.75;;;;;;;23.65;36.32;102095.78;5071339;28;20077;-83
2021/06/26 07:32:55;;;;;;;6.95;1.50;;;;;;;23.67;36.13;102096.22;5071381;28;20043;-82
2021/06/26 07:35:20;;;;;;;3.83;1.00;;;;;;;23.70;35.99;102093.50;5071453;28;20041;-84
2021/06/26 07:37:46;;;;;;;4.43;1.20;;;;;;;23.75;35.91;102103.56;5071286;28;20113;-82
2021/06/26 07:40:14;;;;;;;1.48;0.90;;;;;;;23.46;35.93;102097.41;5072649;28;20021;-80
2021/06/26 07:42:39;;;;;;;1.55;1.05;;;;;;;23.31;36.12;102094.69;5064488;28;20030;-82
2021/06/26 07:45:06;;;;;;;4.15;1.08;;;;;;;23.55;36.20;102102.75;5066486;28;20039;-82
2021/06/26 07:47:31;;;;;;;6.55;1.00;;;;;;;23.81;35.77;102107.66;5069978;28;20029;-79
2021/06/26 07:49:57;;;;;;;4.80;1.30;;;;;;;23.71;36.14;102099.88;5068751;28;20025;-81
2021/06/26 07:52:22;;;;;;;6.50;1.13;;;;;;;23.67;36.37;102105.41;5070093;28;20040;-80
2021/06/26 07:54:48;;;;;;;2.65;1.05;;;;;;;23.59;36.43;102092.47;5071109;28;20025;-80
2021/06/26 07:57:14;;;;;;;7.78;1.10;;;;;;;23.57;36.59;102103.16;5064371;28;20493;-80
2021/06/26 07:59:39;;;;;;;3.42;1.20;;;;;;;23.70;36.57;102101.06;5066958;28;20048;-80
2021/06/26 08:02:05;;;;;;;4.55;1.30;;;;;;;23.73;36.45;102103.94;5063040;28;20036;-80
2021/06/26 08:04:30;;;;;;;4.22;1.00;;;;;;;23.72;36.21;102098.69;5066076;28;20033;-82
2021/06/26 08:06:56;;;;;;;6.18;1.40;;;;;;;23.70;36.27;102104.66;5068510;28;20490;-82
2021/06/26 08:09:22;;;;;;;5.40;0.95;;;;;;;23.64;36.28;102106.13;5070505;28;20476;-81
2021/06/26 08:11:48;;;;;;;4.95;1.30;;;;;;;23.56;36.54;102107.13;5065516;28;20546;-80
2021/06/26 08:14:13;;;;;;;6.85;1.30;;;;;;;23.70;36.37;102115.00;5069702;28;20023;-80
2021/06/26 08:16:39;;;;;;;5.65;1.60;;;;;;;23.61;36.41;102106.88;5069492;28;20032;-78
2021/06/26 08:19:05;;;;;;;4.55;1.20;;;;;;;23.48;36.48;102110.97;5064472;28;20031;-84
2021/06/26 08:21:30;;;;;;;4.28;1.65;;;;;;;23.39;36.64;102119.56;5069178;28;20033;-82
2021/06/26 08:23:56;;;;;;;3.40;1.15;;;;;;;23.47;36.53;102114.94;5069264;28;20020;-79
2021/06/26 08:26:22;;;;;;;2.88;1.20;;;;;;;23.26;36.95;102116.09;5071976;28;20024;-80
2021/06/26 08:28:47;;;;;;;11.30;2.00;;;;;;;23.47;36.92;102112.94;5069304;28;20083;-82
2021/06/26 08:31:13;;;;;;;4.03;1.35;;;;;;;23.54;37.06;102118.66;5071167;28;20032;-81
2021/06/26 08:33:39;;;;;;;3.80;1.02;;;;;;;23.45;37.19;102122.88;5070732;28;20032;-81
2021/06/26 08:36:05;;;;;;;7.68;1.60;;;;;;;23.57;36.89;102122.69;5070427;28;20112;-87
2021/06/26 08:38:31;;;;;;;4.95;1.15;;;;;;;23.58;36.93;102118.75;5071222;28;20021;-81
2021/06/26 08:40:57;;;;;;;5.65;1.73;;;;;;;23.84;36.71;102123.66;5070057;28;20021;-86
2021/06/26 08:43:23;;;;;;;8.48;2.17;;;;;;;23.84;36.71;102114.47;5069831;28;20387;-86
2021/06/26 08:45:49;;;;;;;3.58;1.10;;;;;;;23.68;36.98;102117.38;5070780;28;20429;-84
2021/06/26 08:48:15;;;;;;;8.20;1.80;;;;;;;23.79;36.60;102121.16;5068994;28;20021;-79
2021/06/26 08:50:40;;;;;;;7.57;1.33;;;;;;;23.79;36.59;102123.94;5071417;28;20095;-83
2021/06/26 08:53:07;;;;;;;3.45;1.80;;;;;;;23.59;36.70;102128.75;5071763;28;20036;-84
2021/06/26 08:55:33;;;;;;;6.85;1.48;;;;;;;23.70;36.69;102128.97;5071120;28;20016;-80
2021/06/26 08:58:03;;;;;;;3.83;1.17;;;;;;;23.95;36.54;102135.81;5071768;28;20054;-80
2021/06/26 09:00:28;;;;;;;;;;;;;;;23.79;36.54;102132.31;5072790;28;20036;-82
2021/06/26 09:03:15;;;;;;;6.57;2.03;;;;;;;23.80;36.77;102136.72;5072009;28;19965;-79
2021/06/26 09:05:43;;;;;;;4.30;1.17;;;;;;;23.89;36.81;102136.50;5070418;28;20024;-80
2021/06/26 09:08:14;;;;;;;10.85;1.52;;;;;;;23.97;36.60;102138.25;5071858;28;20132;-81
2021/06/26 09:10:42;;;;;;;6.22;1.55;;;;;;;23.72;36.86;102138.56;5072079;28;20099;-81
2021/06/26 09:13:24;;;;;;;4.05;1.38;;;;;;;23.73;37.00;102145.78;5072339;28;20060;-80
2021/06/26 09:16:02;;;;;;;8.25;1.90;;;;;;;23.82;36.96;102133.59;5066984;28;20028;-80
2021/06/26 09:18:28;;;;;;;5.88;1.77;;;;;;;23.69;37.54;102141.31;5070104;28;20032;-84
2021/06/26 09:20:55;;;;;;;3.03;1.20;;;;;;;23.83;37.03;102133.22;5071654;28;20528;-81
2021/06/26 09:23:44;;;;;;;5.63;1.88;;;;;;;23.64;37.55;102136.81;5071225;28;20135;-83
2021/06/26 09:26:11;;;;;;;5.65;1.83;;;;;;;23.65;37.08;102138.44;5075449;28;20540;-83
2021/06/26 09:28:38;;;;;;;8.10;1.70;;;;;;;23.72;37.24;102135.78;5075200;28;20028;-81
2021/06/26 09:31:13;;;;;;;6.03;1.42;;;;;;;23.75;37.04;102132.25;5075425;28;20059;-82
2021/06/26 09:33:39;;;;;;;6.13;1.70;;;;;;;24.01;36.46;102133.53;5074094;28;20455;-81
2021/06/26 09:36:08;;;;;;;5.75;1.65;;;;;;;23.81;36.67;102135.56;5075219;28;20103;-80
2021/06/26 09:38:36;;;;;;;10.50;2.43;;;;;;;23.77;36.96;102132.69;5075286;28;20449;-80
2021/06/26 09:41:13;;;;;;;4.45;1.38;;;;;;;23.71;36.67;102138.94;5073049;28;20743;-80
2021/06/26 09:43:39;;;;;;;4.47;1.20;;;;;;;23.73;36.96;102133.81;5071841;28;20470;-81
2021/06/26 09:46:09;;;;;;;5.03;1.38;;;;;;;23.73;36.50;102133.81;5073623;28;20021;-83
2021/06/26 09:48:49;;;;;;;5.68;1.25;;;;;;;23.68;36.75;102139.69;5073581;28;20020;-80
2021/06/26 09:51:26;;;;;;;5.18;1.05;;;;;;;23.71;36.76;102133.38;5073627;28;20021;-81
2021/06/26 09:54:00;;;;;;;4.72;1.60;;;;;;;23.72;37.18;102137.75;5073529;28;20426;-81
2021/06/26 09:56:42;;;;;;;5.63;1.73;;;;;;;24.05;36.19;102131.63;5073099;28;20067;-81
2021/06/26 09:59:09;;;;;;;4.85;1.58;;;;;;;24.16;36.10;102121.44;5073376;28;20080;-83
2021/06/26 10:01:36;;;;;;;6.78;1.83;;;;;;;24.08;36.29;102130.84;5074920;28;20035;-80
2021/06/26 10:04:04;;;;;;;6.63;1.75;;;;;;;24.31;36.05;102128.88;5073543;28;20421;-80
2021/06/26 10:06:32;;;;;;;6.85;1.58;;;;;;;24.40;35.92;102131.44;5073476;28;20485;-81
2021/06/26 10:08:58;;;;;;;6.82;1.83;;;;;;;24.43;36.27;102130.69;5074680;28;20024;-82
2021/06/26 10:11:24;;;;;;;2.22;1.00;;;;;;;24.15;36.29;102131.00;5073477;28;20032;-84
2021/06/26 10:13:51;;;;;;;3.70;1.10;;;;;;;24.35;35.80;102140.16;5073283;28;20136;-81
2021/06/26 10:16:17;;;;;;;4.05;1.50;;;;;;;24.48;35.78;102132.34;5074394;28;20090;-80
2021/06/26 10:18:43;;;;;;;7.43;1.88;;;;;;;24.45;35.67;102117.16;5074199;28;20032;-81
2021/06/26 10:21:09;;;;;;;1.92;0.77;;;;;;;24.58;35.93;102124.16;5073124;28;20036;-79
2021/06/26 10:23:36;;;;;;;2.30;1.08;;;;;;;24.54;35.59;102125.25;5072602;28;20391;-79
2021/06/26 10:26:02;;;;;;;5.50;1.67;;;;;;;24.48;35.95;102126.75;5073207;28;20028;-79
2021/06/26 10:28:28;;;;;;;5.25;1.38;;;;;;;24.47;36.06;102137.13;5074390;28;20028;-80
2021/06/26 10:31:11;;;;;;;4.28;1.10;;;;;;;24.18;36.79;102124.69;5074157;28;20104;-80
2021/06/26 10:33:36;;;;;;;5.28;1.60;;;;;;;24.35;36.17;102135.38;5074254;28;20449;-82
2021/06/26 10:36:02;;;;;;;5.93;1.70;;;;;;;24.39;36.29;102135.41;5072978;28;20112;-79
2021/06/26 10:38:39;;;;;;;5.32;1.63;;;;;;;24.39;36.33;102141.00;5074071;28;20430;-80
2021/06/26 10:41:23;;;;;;;6.93;1.77;;;;;;;24.43;36.12;102138.28;5074228;28;20040;-79
2021/06/26 10:43:55;;;;;;;2.78;1.00;;;;;;;24.05;36.34;102126.84;5073919;28;20028;-83
2021/06/26 10:46:21;;;;;;;5.75;1.55;;;;;;;24.08;36.01;102134.47;5072687;28;20024;-83
2021/06/26 10:49:13;;;;;;;3.72;1.13;;;;;;;24.08;36.29;102130.84;5072510;28;20025;-82
2021/06/26 10:51:41;;;;;;;6.10;1.80;;;;;;;24.24;35.91;102134.31;5070546;28;20040;-84
2021/06/26 10:54:17;;;;;;;8.10;2.13;;;;;;;24.51;35.41;102140.00;5072333;28;20028;-78
2021/06/26 10:56:45;;;;;;;6.03;2.17;;;;;;;24.81;35.19;102134.47;5074567;28;20028;-88
2021/06/26 10:59:15;;;;;;;3.50;1.38;;;;;;;24.51;35.71;102138.00;5074516;28;20052;-82
2021/06/26 11:01:58;;;;;;;6.95;1.50;;;;;;;24.67;35.68;102140.66;5074712;28;20055;-88
2021/06/26 11:04:25;;;;;;;5.78;1.42;;;;;;;24.74;35.64;102142.75;5074455;28;20483;-81
2021/06/26 11:07:03;;;;;;;4.70;1.42;;;;;;;24.27;36.13;102143.97;5073819;28;20031;-80
2021/06/26 11:09:41;;;;;;;4.82;1.40;;;;;;;24.53;35.84;102146.00;5056351;28;20479;-87
2021/06/26 11:12:11;;;;;;;5.00;2.05;;;;;;;24.70;35.66;102139.88;5074388;28;20034;-86
2021/06/26 11:14:47;;;;;;;5.10;1.38;;;;;;;24.49;35.92;102142.38;5055829;28;20538;-86
2021/06/26 11:17:13;;;;;;;4.60;1.85;;;;;;;24.49;35.69;102150.75;5055793;28;20025;-85
2021/06/26 11:19:38;;;;;;;9.23;2.00;;;;;;;24.53;35.67;102146.00;5054868;28;20066;-81
2021/06/26 11:22:04;;;;;;;10.80;2.35;;;;;;;24.72;35.71;102147.91;5073793;28;20082;-85
2021/06/26 11:24:44;;;;;;;7.85;2.50;;;;;;;24.67;36.14;102143.44;5073673;28;20033;-83